SBSM/RIA METAR and TAF weather

Enter ICAO airport designator
Station Type Date Time Source
SBSM METAR 2019/07/17 18:00 UTC NOAA

SBSM 171800Z 10008KT 070V130 CAVOK 18/10 Q1024


Station Type Date Time Source
SBSM Decoded METAR 2019/07/17 18:00 UTC NOAA

Santa Maria Aero-Porto , Brazil (SBSM) 29-43S 053-42W
Jul 17, 2019 - 02:00 PM EDT / 2019.07.17 1800 UTC
Wind: from the E (100 degrees) at 9 MPH (8 KT) (direction variable):0
Visibility: greater than 7 mile(s):0
Temperature: 64 F (18 C)
Dew Point: 50 F (10 C)
Relative Humidity: 59%
Pressure (altimeter): 30.24 in. Hg (1024 hPa)
ob: SBSM 171800Z 10008KT 070V130 CAVOK 18/10 Q1024
cycle: 18

Station Type Date Time Source
SBSM TAF 2019/07/17 18:33 UTC NOAA

TAF SBSM 171515Z 1718/1806 09006KT CAVOK TX18/1718Z TN09/1806Z
RMK PDW

Example: see airport list